Time;durP1;ratioP1;P1;durP2;ratioP2;P2;SDS_P1;SDS_P2;PMS_P1;PMS_P2;Temp;Humidity;BMP_temperature;BMP_pressure;BME280_temperature;BME280_humidity;BME280_pressure;Samples;Min_cycle;Max_cycle;Signal;HPM_P1;HPM_P2
2023/03/12 00:01:12;;;;;;;12.47;7.50;;;;;;;0.10;100.00;98747.03;5146483;27;20198;-79
2023/03/12 00:03:41;;;;;;;17.73;8.10;;;;;;;-0.01;100.00;98747.31;5154290;27;20304;-79
2023/03/12 00:06:10;;;;;;;12.60;7.80;;;;;;;0.06;100.00;98741.06;5145448;27;20277;-79
2023/03/12 00:08:39;;;;;;;10.70;7.37;;;;;;;0.23;100.00;98756.19;5148579;27;20670;-79
2023/03/12 00:11:10;;;;;;;12.67;7.97;;;;;;;0.17;100.00;98751.16;5153926;27;20262;-79
2023/03/12 00:13:41;;;;;;;16.30;7.83;;;;;;;0.15;100.00;98752.97;5148780;27;20248;-79
2023/03/12 00:16:11;;;;;;;13.03;7.70;;;;;;;0.01;100.00;98752.50;5144565;27;20258;-79
2023/03/12 00:18:40;;;;;;;12.10;7.23;;;;;;;0.17;100.00;98753.75;5146775;27;20285;-79
2023/03/12 00:21:10;;;;;;;12.07;7.77;;;;;;;0.19;100.00;98752.84;5149477;27;20201;-79
2023/03/12 00:23:38;;;;;;;13.50;7.80;;;;;;;0.15;100.00;98753.81;5145905;27;20198;-79
2023/03/12 00:26:09;;;;;;;9.33;6.57;;;;;;;0.30;100.00;98764.69;5153366;27;20190;-79
2023/03/12 00:28:38;;;;;;;10.57;7.13;;;;;;;0.42;100.00;98754.75;5153726;27;20262;-80
2023/03/12 00:31:16;;;;;;;12.87;7.37;;;;;;;0.23;100.00;98756.19;5150746;27;20198;-78
2023/03/12 00:33:45;;;;;;;16.27;7.67;;;;;;;0.22;100.00;98759.69;5148686;27;20352;-79
2023/03/12 00:36:15;;;;;;;12.30;7.60;;;;;;;0.25;100.00;98759.59;5154117;27;20693;-79
2023/03/12 00:38:43;;;;;;;12.73;7.57;;;;;;;0.24;100.00;98755.31;5157696;27;20186;-79
2023/03/12 00:41:12;;;;;;;12.97;7.07;;;;;;;0.34;100.00;98753.28;5152619;27;20245;-78
2023/03/12 00:43:40;;;;;;;10.03;6.30;;;;;;;0.42;100.00;98748.69;5153998;27;20213;-79
2023/03/12 00:46:09;;;;;;;10.33;6.10;;;;;;;0.42;100.00;98752.16;5150682;27;20254;-78
2023/03/12 00:48:39;;;;;;;11.13;6.27;;;;;;;0.41;100.00;98747.84;5144447;27;20204;-79
2023/03/12 00:51:07;;;;;;;10.90;6.30;;;;;;;0.46;100.00;98751.16;5107782;28;20244;-79
2023/03/12 00:53:36;;;;;;;9.33;5.70;;;;;;;0.38;100.00;98737.50;5110967;28;20195;-80
2023/03/12 00:56:06;;;;;;;8.43;5.67;;;;;;;0.36;100.00;98741.91;5110861;28;20227;-78
2023/03/12 00:58:34;;;;;;;10.43;5.30;;;;;;;0.22;100.00;98739.72;5113716;28;20225;-79
2023/03/12 01:01:03;;;;;;;8.93;5.70;;;;;;;0.25;100.00;98734.41;5110755;28;20187;-80
2023/03/12 01:03:31;;;;;;;11.90;6.53;;;;;;;0.13;100.00;98736.53;5112200;28;20233;-78
2023/03/12 01:06:01;;;;;;;10.60;5.90;;;;;;;0.33;100.00;98731.59;5111774;28;20199;-79
2023/03/12 01:08:31;;;;;;;10.77;5.93;;;;;;;0.42;100.00;98736.53;5123083;27;20192;-79
2023/03/12 01:11:03;;;;;;;10.00;5.07;;;;;;;0.49;100.00;98734.59;5153401;27;20201;-80
2023/03/12 01:13:32;;;;;;;7.63;5.53;;;;;;;0.40;100.00;98733.13;5152813;27;20217;-79
2023/03/12 01:16:00;;;;;;;7.90;5.20;;;;;;;0.50;100.00;98738.91;5156471;27;20221;-79
2023/03/12 01:18:28;;;;;;;10.37;5.10;;;;;;;0.43;100.00;98735.63;5155237;27;20186;-79
2023/03/12 01:20:56;;;;;;;9.63;5.50;;;;;;;0.51;100.00;98728.44;5138611;27;20257;-79
2023/03/12 01:23:29;;;;;;;10.03;5.23;;;;;;;0.48;100.00;98728.53;5153071;27;20189;-79
2023/03/12 01:25:58;;;;;;;7.57;4.80;;;;;;;0.50;100.00;98731.09;5153638;27;20198;-79
2023/03/12 01:28:27;;;;;;;8.47;5.10;;;;;;;0.29;100.00;98727.38;5158900;27;20217;-79
2023/03/12 01:30:55;;;;;;;8.10;5.27;;;;;;;0.24;100.00;98721.44;5147505;27;20368;-79
2023/03/12 01:33:23;;;;;;;9.60;4.97;;;;;;;0.29;100.00;98727.38;5152986;27;20216;-79
2023/03/12 01:35:51;;;;;;;9.77;5.23;;;;;;;0.22;100.00;98725.84;5068005;28;20251;-79
2023/03/12 01:38:20;;;;;;;6.93;4.87;;;;;;;0.25;100.00;98728.34;5063901;28;20648;-79
2023/03/12 01:40:51;;;;;;;8.10;5.20;;;;;;;0.31;100.00;98724.72;5071940;28;20195;-79
2023/03/12 01:43:31;;;;;;;7.73;5.40;;;;;;;0.32;100.00;98721.22;5064164;28;20204;-79
2023/03/12 01:46:05;;;;;;;12.57;5.30;;;;;;;0.32;100.00;98721.22;5067596;28;20196;-79
2023/03/12 01:48:42;;;;;;;8.43;5.40;;;;;;;0.23;100.00;98719.75;5066245;28;20647;-79
2023/03/12 01:51:13;;;;;;;8.90;5.57;;;;;;;0.25;100.00;98718.78;5062590;28;20207;-79
2023/03/12 01:53:45;;;;;;;7.57;4.83;;;;;;;0.27;100.00;98723.94;5093619;27;20201;-79
2023/03/12 01:56:17;;;;;;;6.07;4.27;;;;;;;0.19;100.00;98723.31;5152586;27;20220;-80
2023/03/12 01:58:49;;;;;;;8.17;4.27;;;;;;;0.20;100.00;98720.69;5151797;27;20193;-80
2023/03/12 02:01:19;;;;;;;7.33;4.93;;;;;;;0.43;100.00;98708.72;5155667;27;20190;-80
2023/03/12 02:03:52;;;;;;;8.87;4.90;;;;;;;0.36;100.00;98712.41;5103733;27;20649;-80
2023/03/12 02:06:25;;;;;;;8.00;4.87;;;;;;;0.26;100.00;98706.63;5149155;27;20201;-79
2023/03/12 02:08:55;;;;;;;9.03;5.07;;;;;;;0.22;100.00;98700.66;5147460;27;20198;-80
2023/03/12 02:11:25;;;;;;;8.73;5.23;;;;;;;0.07;100.00;98708.06;5151124;27;20226;-80
2023/03/12 02:13:57;;;;;;;9.07;5.00;;;;;;;0.03;100.00;98703.84;5147543;27;20201;-79
2023/03/12 02:16:26;;;;;;;8.23;4.77;;;;;;;0.08;100.00;98712.38;5148369;27;20268;-80
2023/03/12 02:18:57;;;;;;;8.93;4.93;;;;;;;0.07;100.00;98710.66;5148183;27;20271;-79
2023/03/12 02:21:29;;;;;;;7.23;4.60;;;;;;;0.14;100.00;98702.63;5154062;27;20250;-79
2023/03/12 02:24:03;;;;;;;7.30;5.07;;;;;;;0.24;100.00;98706.66;5152226;27;20190;-79
2023/03/12 02:26:35;;;;;;;8.50;4.90;;;;;;;0.10;100.00;98702.78;5157748;27;20205;-79
2023/03/12 02:29:04;;;;;;;12.30;5.70;;;;;;;0.17;100.00;98709.50;5146772;27;20692;-79
2023/03/12 02:31:38;;;;;;;7.27;4.53;;;;;;;0.19;100.00;98708.56;5151689;27;20197;-79
2023/03/12 02:34:07;;;;;;;9.53;4.80;;;;;;;0.35;100.00;98706.34;5151994;27;20197;-79
2023/03/12 02:36:35;;;;;;;8.33;4.93;;;;;;;0.43;100.00;98706.13;5144273;27;20213;-80
2023/03/12 02:39:05;;;;;;;10.03;4.87;;;;;;;0.32;100.00;98703.84;5144350;27;20255;-80
2023/03/12 02:41:37;;;;;;;9.70;4.70;;;;;;;0.31;100.00;98696.09;5151125;27;20244;-80
2023/03/12 02:44:10;;;;;;;6.17;4.57;;;;;;;0.18;100.00;98704.25;5154650;27;20813;-80
2023/03/12 02:46:41;;;;;;;8.23;4.60;;;;;;;0.25;100.00;98702.31;5157308;27;20201;-79
2023/03/12 02:49:12;;;;;;;7.50;4.83;;;;;;;0.27;100.00;98703.97;5152258;27;20197;-79
2023/03/12 02:51:43;;;;;;;9.73;5.10;;;;;;;0.31;100.00;98696.94;5146862;27;20197;-79
2023/03/12 02:54:12;;;;;;;9.87;4.80;;;;;;;0.28;100.00;98689.19;5154653;27;20637;-79
2023/03/12 02:56:43;;;;;;;8.57;4.80;;;;;;;0.05;100.00;98694.25;5153580;27;20209;-79
2023/03/12 02:59:13;;;;;;;7.77;4.93;;;;;;;0.15;100.00;98688.72;5145460;27;20197;-80
2023/03/12 03:01:42;;;;;;;8.47;4.63;;;;;;;0.08;100.00;98687.19;5154203;27;20345;-80
2023/03/12 03:04:11;;;;;;;9.20;4.57;;;;;;;0.16;100.00;98693.03;5153175;27;20192;-80
2023/03/12 03:06:42;;;;;;;8.67;4.37;;;;;;;-0.01;100.00;98683.09;5153193;27;20272;-80
2023/03/12 03:09:11;;;;;;;8.03;4.47;;;;;;;-0.02;100.00;98683.16;5151631;27;20194;-80
2023/03/12 03:11:40;;;;;;;10.77;4.90;;;;;;;0.06;100.00;98681.19;5143083;27;20282;-80
2023/03/12 03:14:09;;;;;;;9.77;4.50;;;;;;;0.08;100.00;98683.72;5140694;27;20246;-80
2023/03/12 03:16:38;;;;;;;8.97;4.30;;;;;;;0.09;100.00;98685.44;5147393;27;20213;-78
2023/03/12 03:19:07;;;;;;;7.07;4.40;;;;;;;0.01;100.00;98680.47;5143053;27;20190;-78
2023/03/12 03:21:35;;;;;;;10.10;4.80;;;;;;;0.01;100.00;98680.47;5066563;28;20284;-79
2023/03/12 03:24:04;;;;;;;7.27;4.43;;;;;;;0.06;100.00;98682.94;5061149;28;20256;-80
2023/03/12 03:26:33;;;;;;;9.50;4.77;;;;;;;0.01;100.00;98677.03;5059977;28;20204;-79
2023/03/12 03:29:04;;;;;;;8.20;4.13;;;;;;;0.09;100.00;98678.47;5013947;28;20262;-79
2023/03/12 03:31:34;;;;;;;6.37;4.60;;;;;;;0.11;100.00;98679.31;5067407;28;20204;-79
2023/03/12 03:34:03;;;;;;;7.20;4.50;;;;;;;0.17;100.00;98675.66;5067432;28;20196;-79
2023/03/12 03:36:31;;;;;;;6.80;4.37;;;;;;;0.21;100.00;98682.50;5061322;28;20269;-78
2023/03/12 03:39:00;;;;;;;9.43;4.40;;;;;;;0.25;100.00;98687.53;5023330;28;20198;-79
2023/03/12 03:41:28;;;;;;;7.30;4.47;;;;;;;0.26;100.00;98684.03;5088248;28;20203;-79
2023/03/12 03:43:58;;;;;;;9.53;4.53;;;;;;;0.19;100.00;98676.44;5081079;28;20249;-79
2023/03/12 03:46:28;;;;;;;8.20;4.07;;;;;;;0.20;100.00;98673.81;5085794;28;20203;-79
2023/03/12 03:48:59;;;;;;;8.57;4.80;;;;;;;0.28;100.00;98677.03;5087576;28;20196;-79
2023/03/12 03:51:27;;;;;;;6.30;4.33;;;;;;;0.31;100.00;98675.25;5089192;28;20686;-79
2023/03/12 03:53:57;;;;;;;8.83;4.63;;;;;;;0.20;100.00;98673.81;5147203;27;20664;-79
2023/03/12 03:56:25;;;;;;;6.37;4.40;;;;;;;0.21;100.00;98675.53;5146408;27;20265;-79
2023/03/12 03:58:54;;;;;;;7.50;4.23;;;;;;;0.20;100.00;98666.00;5153709;27;20197;-79
2023/03/12 04:01:22;;;;;;;7.50;4.20;;;;;;;0.14;100.00;98679.22;5144467;27;20205;-79
2023/03/12 04:03:51;;;;;;;7.03;4.00;;;;;;;0.23;100.00;98678.09;5150720;27;20300;-79
2023/03/12 04:06:21;;;;;;;5.00;4.10;;;;;;;0.25;100.00;98676.28;5148012;27;20193;-79
2023/03/12 04:08:49;;;;;;;10.53;4.37;;;;;;;0.24;100.00;98677.19;5141770;27;20251;-79
2023/03/12 04:11:20;;;;;;;7.50;4.17;;;;;;;0.21;100.00;98680.72;5152410;27;20246;-79
2023/03/12 04:13:49;;;;;;;7.10;3.90;;;;;;;0.18;100.00;98687.75;5151356;27;20192;-80
2023/03/12 04:16:18;;;;;;;7.97;4.40;;;;;;;0.32;100.00;98689.97;5156105;27;20196;-79
2023/03/12 04:18:47;;;;;;;8.40;4.20;;;;;;;0.39;100.00;98684.53;5158010;27;20239;-80
2023/03/12 04:21:17;;;;;;;5.63;3.50;;;;;;;0.38;100.00;98679.34;5152568;27;20201;-79
2023/03/12 04:23:46;;;;;;;7.17;4.33;;;;;;;0.34;100.00;98678.59;5150715;27;20198;-80
2023/03/12 04:26:16;;;;;;;8.10;4.07;;;;;;;0.40;100.00;98685.38;5154221;27;20224;-79
2023/03/12 04:28:45;;;;;;;8.93;4.20;;;;;;;0.39;100.00;98681.09;5162139;27;20217;-79
2023/03/12 04:31:13;;;;;;;8.53;3.83;;;;;;;0.48;100.00;98678.16;5142080;27;20308;-80
2023/03/12 04:33:44;;;;;;;8.80;3.93;;;;;;;0.39;100.00;98668.06;5157390;27;20194;-79
2023/03/12 04:36:15;;;;;;;8.23;4.10;;;;;;;0.43;100.00;98654.88;5149828;27;20206;-80
2023/03/12 04:38:43;;;;;;;7.70;3.80;;;;;;;0.44;100.00;98656.56;5151588;27;20217;-79
2023/03/12 04:41:14;;;;;;;8.60;4.43;;;;;;;0.37;100.00;98651.59;5153234;27;20208;-79
2023/03/12 04:43:43;;;;;;;8.80;3.93;;;;;;;0.33;100.00;98657.81;5155878;27;20201;-79
2023/03/12 04:46:11;;;;;;;7.17;3.90;;;;;;;0.39;100.00;98666.31;5148805;27;20181;-79
2023/03/12 04:48:41;;;;;;;7.20;3.83;;;;;;;0.38;100.00;98667.19;5149467;27;20696;-79
2023/03/12 04:51:09;;;;;;;7.77;3.70;;;;;;;0.45;100.00;98650.47;5155728;27;20198;-80
2023/03/12 04:53:39;;;;;;;8.43;3.80;;;;;;;0.41;100.00;98648.88;5148918;27;20194;-80
2023/03/12 04:56:08;;;;;;;5.10;3.20;;;;;;;0.50;100.00;98643.38;5151451;27;20198;-80
2023/03/12 04:58:38;;;;;;;6.13;3.33;;;;;;;0.50;100.00;98635.56;5151314;27;20209;-80
2023/03/12 05:01:06;;;;;;;7.63;4.03;;;;;;;0.55;100.00;98638.84;5156847;27;20233;-80
2023/03/12 05:03:35;;;;;;;9.10;3.63;;;;;;;0.63;100.00;98643.81;5146708;27;20186;-79
2023/03/12 05:06:08;;;;;;;6.03;3.47;;;;;;;0.46;100.00;98640.91;5148920;27;20200;-80
2023/03/12 05:08:36;;;;;;;9.73;3.90;;;;;;;0.44;100.00;98627.06;5159333;27;20190;-80
2023/03/12 05:11:04;;;;;;;6.53;3.90;;;;;;;0.37;100.00;98622.94;5150913;27;20197;-80
2023/03/12 05:13:33;;;;;;;8.53;3.33;;;;;;;0.39;100.00;98611.59;5148197;27;20205;-79
2023/03/12 05:16:03;;;;;;;7.57;3.37;;;;;;;0.48;100.00;98624.34;5156429;27;20235;-80
2023/03/12 05:18:32;;;;;;;7.73;4.10;;;;;;;0.50;100.00;98625.13;5148440;27;20216;-80
2023/03/12 05:21:01;;;;;;;4.77;3.40;;;;;;;0.35;100.00;98617.78;5151628;27;20193;-80
2023/03/12 05:23:30;;;;;;;5.57;3.63;;;;;;;0.36;100.00;98616.91;5153899;27;20198;-80
2023/03/12 05:26:00;;;;;;;6.67;3.27;;;;;;;0.30;100.00;98619.72;5149189;27;20718;-80
2023/03/12 05:28:28;;;;;;;7.50;3.63;;;;;;;0.31;100.00;98620.56;5156074;27;20391;-80
2023/03/12 05:30:58;;;;;;;7.87;3.67;;;;;;;0.23;100.00;98615.59;5157773;27;20194;-79
2023/03/12 05:33:28;;;;;;;8.10;4.50;;;;;;;0.21;100.00;98617.38;5156379;27;20201;-79
2023/03/12 05:35:57;;;;;;;6.70;4.13;;;;;;;0.31;100.00;98617.94;5155182;27;20193;-80
2023/03/12 05:38:25;;;;;;;6.77;4.40;;;;;;;0.38;100.00;98607.28;5156273;27;20717;-79
2023/03/12 05:40:55;;;;;;;10.47;4.70;;;;;;;0.31;100.00;98611.00;5147358;27;20221;-80
2023/03/12 05:43:24;;;;;;;8.97;4.10;;;;;;;0.26;100.00;98615.47;5152400;27;20632;-80
2023/03/12 05:45:53;;;;;;;6.70;3.90;;;;;;;0.36;100.00;98622.09;5155870;27;20632;-80
2023/03/12 05:48:21;;;;;;;7.10;3.97;;;;;;;0.38;100.00;98622.03;5150290;27;20197;-79
2023/03/12 05:50:51;;;;;;;7.50;3.80;;;;;;;0.36;100.00;98623.84;5146433;27;20189;-79
2023/03/12 05:53:20;;;;;;;9.00;3.57;;;;;;;0.26;100.00;98620.69;5151840;27;20202;-79
2023/03/12 05:55:48;;;;;;;5.80;3.60;;;;;;;0.24;100.00;98619.88;5155976;27;20234;-79
2023/03/12 05:58:17;;;;;;;9.20;3.70;;;;;;;0.21;100.00;98630.41;5149046;27;20205;-79
2023/03/12 06:00:45;;;;;;;6.97;3.80;;;;;;;0.33;100.00;98630.03;5157018;27;20246;-80
2023/03/12 06:03:15;;;;;;;9.20;3.70;;;;;;;0.34;100.00;98634.31;5150974;27;20194;-79
2023/03/12 06:05:44;;;;;;;6.17;3.40;;;;;;;0.34;100.00;98623.06;5145382;27;20206;-80
2023/03/12 06:08:14;;;;;;;6.20;3.33;;;;;;;0.41;100.00;98621.97;5148710;27;20193;-80
2023/03/12 06:10:42;;;;;;;7.60;3.00;;;;;;;0.40;100.00;98623.72;5155512;27;20190;-79
2023/03/12 06:13:11;;;;;;;6.63;3.60;;;;;;;0.52;100.00;98627.69;5150729;27;20190;-80
2023/03/12 06:15:39;;;;;;;9.77;4.07;;;;;;;0.50;100.00;98625.13;5157833;27;20242;-79
2023/03/12 06:18:07;;;;;;;5.67;3.50;;;;;;;0.56;100.00;98624.91;5145262;27;20221;-80
2023/03/12 06:20:36;;;;;;;5.13;3.27;;;;;;;0.47;100.00;98612.19;5141723;27;20205;-79
2023/03/12 06:23:04;;;;;;;4.67;3.07;;;;;;;0.58;100.00;98604.06;5112175;27;20234;-80
2023/03/12 06:25:36;;;;;;;6.03;3.40;;;;;;;0.65;100.00;98602.06;5147668;27;20185;-79
2023/03/12 06:28:05;;;;;;;8.50;3.50;;;;;;;0.53;100.00;98612.00;5152655;27;20229;-79
2023/03/12 06:30:34;;;;;;;7.43;3.20;;;;;;;0.63;100.00;98601.28;5119305;27;20202;-79
2023/03/12 06:33:06;;;;;;;6.87;3.50;;;;;;;0.60;100.00;98606.59;5145605;27;20205;-79
2023/03/12 06:35:35;;;;;;;6.70;3.67;;;;;;;0.68;100.00;98608.06;5145963;27;20202;-79
2023/03/12 06:38:03;;;;;;;6.80;3.73;;;;;;;0.82;100.00;98602.38;5146533;27;20228;-79
2023/03/12 06:40:36;;;;;;;8.50;3.47;;;;;;;0.82;100.00;98592.78;5152065;27;20189;-80
2023/03/12 06:43:04;;;;;;;6.23;3.43;;;;;;;0.83;100.00;98588.44;5147280;27;20258;-79
2023/03/12 06:45:32;;;;;;;6.20;3.33;;;;;;;0.90;100.00;98587.31;5146523;27;20201;-79
2023/03/12 06:48:04;;;;;;;5.47;3.33;;;;;;;0.90;100.00;98604.72;5147639;27;20264;-79
2023/03/12 06:50:32;;;;;;;6.97;3.20;;;;;;;0.90;100.00;98605.56;5156566;27;20197;-79
2023/03/12 06:53:01;;;;;;;7.43;3.80;;;;;;;0.77;100.00;98596.44;5157453;27;20190;-79
2023/03/12 06:55:29;;;;;;;5.40;3.00;;;;;;;0.81;100.00;98590.25;5150253;27;20644;-78
2023/03/12 06:57:59;;;;;;;6.90;3.20;;;;;;;0.91;100.00;98586.41;5146906;27;20209;-79
2023/03/12 07:00:30;;;;;;;8.77;3.33;;;;;;;0.89;100.00;98571.75;5154715;27;20194;-78
2023/03/12 07:02:59;;;;;;;5.40;2.87;;;;;;;0.94;100.00;98583.69;5151609;27;20274;-79
2023/03/12 07:05:28;;;;;;;5.67;2.60;;;;;;;0.96;100.00;98579.28;5145201;27;20194;-79
2023/03/12 07:07:57;;;;;;;4.83;2.57;;;;;;;0.96;100.00;98579.28;5151686;27;20268;-79
2023/03/12 07:10:26;;;;;;;5.73;3.00;;;;;;;0.92;100.00;98582.06;5149104;27;20198;-79
2023/03/12 07:12:56;;;;;;;3.90;2.60;;;;;;;1.00;100.00;98585.25;5152051;27;20311;-79
2023/03/12 07:15:30;;;;;;;6.63;3.10;;;;;;;1.10;100.00;98595.31;5147134;27;20205;-79
2023/03/12 07:18:00;;;;;;;5.80;2.50;;;;;;;1.10;100.00;98571.00;5151544;27;20189;-79
2023/03/12 07:20:28;;;;;;;5.53;2.40;;;;;;;1.04;100.00;98566.84;5154705;27;20213;-79
2023/03/12 07:22:56;;;;;;;5.53;2.80;;;;;;;1.10;100.00;98578.81;5150250;27;20222;-79
2023/03/12 07:25:24;;;;;;;6.30;2.37;;;;;;;1.14;100.00;98568.22;5150509;27;20193;-79
2023/03/12 07:27:53;;;;;;;6.07;2.83;;;;;;;1.21;100.00;98562.78;5147834;27;20315;-79
2023/03/12 07:30:22;;;;;;;8.33;2.80;;;;;;;1.14;100.00;98562.13;5154435;27;20203;-79
2023/03/12 07:32:53;;;;;;;3.87;2.60;;;;;;;1.28;100.00;98564.28;5050186;28;20283;-79
2023/03/12 07:35:22;;;;;;;5.27;2.67;;;;;;;1.27;100.00;98563.44;5051581;28;20652;-79
2023/03/12 07:37:53;;;;;;;5.00;2.30;;;;;;;1.35;100.00;98573.56;5046505;28;20201;-79
2023/03/12 07:40:21;;;;;;;5.07;2.23;;;;;;;1.32;100.00;98571.91;5007795;28;20219;-79
2023/03/12 07:42:51;;;;;;;5.27;2.30;;;;;;;1.42;100.00;98572.44;5007961;28;20194;-79
2023/03/12 07:45:22;;;;;;;6.30;2.40;;;;;;;1.44;100.00;98571.47;5020872;28;20194;-79
2023/03/12 07:47:52;;;;;;;4.57;2.40;;;;;;;1.10;100.00;98566.63;5013497;28;20229;-79
2023/03/12 07:50:21;;;;;;;5.40;2.53;;;;;;;1.19;100.00;98565.44;5027989;28;20200;-79
2023/03/12 07:52:50;;;;;;;4.53;2.40;;;;;;;1.35;100.00;98565.72;5094308;28;20195;-79
2023/03/12 07:55:18;;;;;;;5.33;3.20;;;;;;;1.39;100.00;98577.78;5090637;28;20199;-79
2023/03/12 07:57:47;;;;;;;6.27;2.90;;;;;;;1.32;100.00;98571.91;5043582;28;20188;-78
2023/03/12 08:00:16;;;;;;;9.63;5.23;;;;;;;1.35;100.00;98582.25;5091846;28;20276;-79
2023/03/12 08:02:45;;;;;;;8.43;3.60;;;;;;;1.23;100.00;98582.69;5090618;28;20262;-79
2023/03/12 08:05:15;;;;;;;4.73;2.93;;;;;;;1.21;100.00;98589.72;5090710;28;20196;-79
2023/03/12 08:07:45;;;;;;;6.93;2.67;;;;;;;1.12;100.00;98580.44;5089048;28;20202;-79
2023/03/12 08:10:13;;;;;;;7.13;3.33;;;;;;;1.02;100.00;98579.06;5088817;28;20233;-79
2023/03/12 08:12:42;;;;;;;5.50;2.83;;;;;;;1.01;100.00;98579.97;5041762;28;20202;-78
2023/03/12 08:15:12;;;;;;;7.37;3.27;;;;;;;0.94;100.00;98586.31;5086378;28;20225;-79
2023/03/12 08:17:42;;;;;;;4.93;3.53;;;;;;;0.90;100.00;98582.13;5089756;28;20291;-79
2023/03/12 08:20:12;;;;;;;9.60;3.60;;;;;;;0.97;100.00;98582.78;5093975;28;20298;-79
2023/03/12 08:22:42;;;;;;;10.93;3.97;;;;;;;0.83;100.00;98580.63;5063542;28;20245;-79
2023/03/12 08:25:11;;;;;;;8.33;4.30;;;;;;;0.87;100.00;98582.22;5091416;28;20192;-80
2023/03/12 08:27:39;;;;;;;8.53;4.77;;;;;;;0.68;100.00;98587.22;5091248;28;20196;-79
2023/03/12 08:30:11;;;;;;;7.33;4.40;;;;;;;0.92;100.00;98595.94;5026805;28;20200;-78
2023/03/12 08:32:39;;;;;;;8.27;4.70;;;;;;;0.97;100.00;98601.00;5021248;28;20645;-78
2023/03/12 08:35:09;;;;;;;7.83;4.67;;;;;;;1.05;100.00;98605.03;4956443;28;20207;-80
2023/03/12 08:37:37;;;;;;;8.40;4.63;;;;;;;0.95;100.00;98597.59;4969368;28;20203;-78
2023/03/12 08:40:12;;;;;;;9.90;4.73;;;;;;;1.04;100.00;98598.13;4971694;28;20722;-79
2023/03/12 08:42:40;;;;;;;10.27;5.17;;;;;;;1.06;100.00;98598.94;4953082;29;20203;-79
2023/03/12 08:45:10;;;;;;;8.77;5.00;;;;;;;0.90;100.00;98607.34;4955044;29;20209;-78
2023/03/12 08:47:40;;;;;;;10.77;4.90;;;;;;;0.94;100.00;98599.34;4992090;28;20189;-79
2023/03/12 08:50:10;;;;;;;6.27;4.80;;;;;;;1.05;100.00;98589.38;5043041;28;20252;-78
2023/03/12 08:52:40;;;;;;;10.37;4.90;;;;;;;1.08;100.00;98591.91;4997185;28;20198;-78
2023/03/12 08:55:11;;;;;;;8.30;5.00;;;;;;;0.92;100.00;98577.69;5013426;28;20198;-79
2023/03/12 08:57:40;;;;;;;9.73;4.70;;;;;;;1.03;100.00;98572.94;5005091;28;20245;-78
2023/03/12 09:00:13;;;;;;;8.23;5.00;;;;;;;1.04;100.00;98569.44;5023673;28;20226;-78
2023/03/12 09:02:43;;;;;;;8.30;4.70;;;;;;;1.13;100.00;98568.25;5072731;28;20231;-79
2023/03/12 09:05:13;;;;;;;7.03;5.20;;;;;;;1.00;100.00;98564.41;5061880;28;20228;-79
2023/03/12 09:07:43;;;;;;;9.13;5.13;;;;;;;1.14;100.00;98559.53;5061331;28;20201;-78
2023/03/12 09:10:13;;;;;;;7.83;4.80;;;;;;;1.07;100.00;98556.31;5068352;28;20306;-78
2023/03/12 09:12:41;;;;;;;6.47;4.43;;;;;;;1.14;100.00;98559.53;5059775;28;20200;-78
2023/03/12 09:15:10;;;;;;;7.43;4.50;;;;;;;1.33;100.00;98554.50;5064440;28;20214;-79
2023/03/12 09:17:39;;;;;;;7.40;4.40;;;;;;;1.38;100.00;98555.19;5066663;28;20192;-79
2023/03/12 09:20:11;;;;;;;7.43;4.30;;;;;;;1.29;100.00;98558.16;5066122;28;20227;-79
2023/03/12 09:22:39;;;;;;;8.93;4.43;;;;;;;1.27;100.00;98555.59;5073183;27;20188;-79
2023/03/12 09:25:09;;;;;;;6.77;4.13;;;;;;;1.21;100.00;98555.81;5151587;27;20219;-79
2023/03/12 09:27:41;;;;;;;8.50;4.30;;;;;;;1.30;100.00;98562.44;5156326;27;20198;-78
2023/03/12 09:30:12;;;;;;;11.90;4.43;;;;;;;1.33;100.00;98562.34;5153855;27;20194;-78
2023/03/12 09:32:41;;;;;;;10.63;4.10;;;;;;;1.33;100.00;98550.13;5156617;27;20190;-78
2023/03/12 09:35:12;;;;;;;6.03;3.80;;;;;;;1.22;100.00;98547.06;5157769;27;20225;-79
2023/03/12 09:37:41;;;;;;;7.97;3.93;;;;;;;1.30;100.00;98544.19;5152085;27;20189;-79
2023/03/12 09:40:16;;;;;;;9.87;4.30;;;;;;;1.45;100.00;98548.88;5156410;27;20206;-79
2023/03/12 09:42:51;;;;;;;6.83;4.00;;;;;;;1.48;100.00;98547.88;5155286;27;20201;-81
2023/03/12 09:45:24;;;;;;;11.50;4.60;;;;;;;1.39;100.00;98541.25;5153361;27;20196;-79
2023/03/12 09:47:54;;;;;;;7.17;4.10;;;;;;;1.42;100.00;98544.59;5152590;27;20193;-78
2023/03/12 09:50:30;;;;;;;7.27;3.90;;;;;;;1.33;100.00;98531.88;5155076;27;20196;-78
2023/03/12 09:53:03;;;;;;;7.13;4.20;;;;;;;1.29;100.00;98545.94;5153144;27;20196;-78
2023/03/12 09:55:37;;;;;;;6.53;4.33;;;;;;;1.33;100.00;98552.75;5152854;27;20262;-79
2023/03/12 09:58:13;;;;;;;9.90;4.60;;;;;;;1.31;100.00;98553.72;5149260;27;20223;-79
2023/03/12 10:00:41;;;;;;;10.03;5.03;;;;;;;1.34;100.00;98557.06;5153042;27;20205;-79
2023/03/12 10:03:47;;;;;;;8.87;5.13;;;;;;;1.47;100.00;98556.63;5066113;28;20242;-78
2023/03/12 10:06:18;;;;;;;9.50;5.73;;;;;;;1.58;100.00;98562.28;5061606;28;20210;-78
2023/03/12 10:09:03;;;;;;;10.77;5.70;;;;;;;1.51;100.00;98566.03;5066070;28;20200;-78
2023/03/12 10:11:43;;;;;;;12.00;6.63;;;;;;;1.53;100.00;98561.59;5070138;28;20197;-79
2023/03/12 10:14:30;;;;;;;9.43;5.83;;;;;;;1.69;100.00;98574.03;5069080;28;20326;-79
2023/03/12 10:17:10;;;;;;;10.87;7.67;;;;;;;1.46;100.00;98573.19;5068994;28;20197;-78
2023/03/12 10:19:53;;;;;;;10.70;6.97;;;;;;;1.69;100.00;98571.41;5064110;28;20195;-78
2023/03/12 10:22:33;;;;;;;13.63;8.30;;;;;;;1.52;100.00;98576.41;5138903;27;20201;-80
2023/03/12 10:25:14;;;;;;;12.77;8.50;;;;;;;1.69;100.00;98576.63;5152133;27;20209;-79
2023/03/12 10:27:43;;;;;;;12.27;8.80;;;;;;;1.60;100.00;98579.59;5150267;27;20246;-79
2023/03/12 10:30:19;;;;;;;15.70;10.07;;;;;;;1.73;100.00;98573.00;5108250;28;20195;-78
2023/03/12 10:32:56;;;;;;;16.37;11.33;;;;;;;1.79;100.00;98578.91;5105868;28;20248;-78
2023/03/12 10:35:25;;;;;;;16.87;11.73;;;;;;;1.71;100.00;98581.78;5108890;28;20195;-78
2023/03/12 10:37:57;;;;;;;16.73;12.53;;;;;;;1.67;100.00;98581.06;5068663;28;20233;-78
2023/03/12 10:40:28;;;;;;;18.23;13.00;;;;;;;1.73;100.00;98577.34;5072949;28;20219;-78
2023/03/12 10:42:56;;;;;;;19.03;13.70;;;;;;;1.68;100.00;98574.09;5068350;28;20196;-78
2023/03/12 10:45:34;;;;;;;21.40;14.40;;;;;;;1.89;100.00;98578.47;5068298;28;20204;-78
2023/03/12 10:48:07;;;;;;;22.13;15.63;;;;;;;1.73;100.00;98578.22;5076139;28;20206;-78
2023/03/12 10:50:37;;;;;;;22.37;15.43;;;;;;;1.67;100.00;98581.06;5103811;28;20206;-78
2023/03/12 10:53:24;;;;;;;22.30;15.87;;;;;;;1.65;100.00;98589.88;5108266;28;20685;-78
2023/03/12 10:56:05;;;;;;;24.03;16.80;;;;;;;1.88;100.00;98584.63;5126762;27;20379;-78
2023/03/12 10:58:36;;;;;;;29.87;16.63;;;;;;;1.73;100.00;98579.97;5150087;27;20189;-79
2023/03/12 11:01:16;;;;;;;27.90;19.37;;;;;;;1.82;100.00;98582.22;5147449;27;20218;-80
2023/03/12 11:03:45;;;;;;;24.37;16.73;;;;;;;1.91;100.00;98596.69;5154710;27;20201;-78
2023/03/12 11:06:22;;;;;;;23.37;16.53;;;;;;;1.96;100.00;98589.56;5148454;27;20662;-80
2023/03/12 11:09:05;;;;;;;25.70;16.47;;;;;;;1.93;100.00;98600.09;5147158;27;20195;-77
2023/03/12 11:11:50;;;;;;;24.33;16.60;;;;;;;2.00;100.00;98598.97;5154714;27;20185;-78
2023/03/12 11:14:20;;;;;;;24.57;16.37;;;;;;;1.84;100.00;98603.94;5154566;27;20182;-77
2023/03/12 11:16:52;;;;;;;28.97;18.90;;;;;;;1.93;100.00;98606.19;5154476;27;20325;-78
2023/03/12 11:19:28;;;;;;;27.27;18.03;;;;;;;1.97;100.00;98599.09;5150741;27;20194;-77
2023/03/12 11:21:59;;;;;;;26.67;17.70;;;;;;;2.08;100.00;98604.75;5149519;27;20278;-77
2023/03/12 11:24:29;;;;;;;29.73;19.97;;;;;;;2.03;100.00;98601.47;5142401;27;20230;-78
2023/03/12 11:27:02;;;;;;;30.43;19.63;;;;;;;2.06;100.00;98592.66;5144660;27;20198;-78
2023/03/12 11:29:38;;;;;;;27.50;18.50;;;;;;;2.14;100.00;98585.38;5109444;28;20211;-78
2023/03/12 11:32:18;;;;;;;32.00;21.10;;;;;;;2.12;100.00;98577.59;5106516;28;20198;-79
2023/03/12 11:34:48;;;;;;;30.70;21.23;;;;;;;2.21;100.00;98590.28;5061780;28;20229;-79
2023/03/12 11:37:31;;;;;;;31.63;19.67;;;;;;;2.38;100.00;98594.84;5026061;28;20198;-78
2023/03/12 11:40:15;;;;;;;30.67;19.73;;;;;;;2.32;100.00;98587.28;5030410;28;20204;-79
2023/03/12 11:43:02;;;;;;;27.83;18.27;;;;;;;2.51;100.00;98592.59;5020373;28;20327;-78
2023/03/12 11:45:41;;;;;;;33.43;20.57;;;;;;;2.41;100.00;98589.50;5027898;28;20684;-79